sensor_id;sensor_type;location;lat;lon;timestamp;pressure;altitude;pressure_sealevel;temperature;humidity
6389;BME280;3227;42.654;23.360;2023-05-29T00:02:01;94229.88;;;15.45;99.78
6389;BME280;3227;42.654;23.360;2023-05-29T00:04:28;94227.25;;;15.47;98.80
6389;BME280;3227;42.654;23.360;2023-05-29T00:06:55;94228.09;;;15.47;98.42
6389;BME280;3227;42.654;23.360;2023-05-29T00:09:22;94229.88;;;15.45;98.53
6389;BME280;3227;42.654;23.360;2023-05-29T00:11:50;94231.63;;;15.43;98.69
6389;BME280;3227;42.654;23.360;2023-05-29T00:14:18;94234.22;;;15.43;98.39
6389;BME280;3227;42.654;23.360;2023-05-29T00:16:45;94229.09;;;15.40;98.86
6389;BME280;3227;42.654;23.360;2023-05-29T00:19:12;94236.84;;;15.40;98.78
6389;BME280;3227;42.654;23.360;2023-05-29T00:21:42;94239.44;;;15.40;98.60
6389;BME280;3227;42.654;23.360;2023-05-29T00:24:09;94241.25;;;15.37;98.09
6389;BME280;3227;42.654;23.360;2023-05-29T00:26:35;94234.53;;;15.30;98.06
6389;BME280;3227;42.654;23.360;2023-05-29T00:29:03;94229.47;;;15.25;98.35
6389;BME280;3227;42.654;23.360;2023-05-29T00:31:30;94235.56;;;15.22;98.64
6389;BME280;3227;42.654;23.360;2023-05-29T00:33:57;94228.75;;;15.18;98.88
6389;BME280;3227;42.654;23.360;2023-05-29T00:36:24;94233.97;;;15.15;99.05
6389;BME280;3227;42.654;23.360;2023-05-29T00:38:51;94226.38;;;15.09;99.19
6389;BME280;3227;42.654;23.360;2023-05-29T00:41:18;94235.94;;;15.06;99.21
6389;BME280;3227;42.654;23.360;2023-05-29T00:43:44;94236.91;;;15.00;99.77
6389;BME280;3227;42.654;23.360;2023-05-29T00:46:14;94229.28;;;14.96;100.00
6389;BME280;3227;42.654;23.360;2023-05-29T00:48:42;94231.94;;;14.91;100.00
6389;BME280;3227;42.654;23.360;2023-05-29T00:51:10;94175.91;;;14.58;100.00
6389;BME280;3227;42.654;23.360;2023-05-29T00:53:39;94223.47;;;14.86;100.00
6389;BME280;3227;42.654;23.360;2023-05-29T00:56:07;94220.06;;;14.84;100.00
6389;BME280;3227;42.654;23.360;2023-05-29T00:58:34;94221.03;;;14.80;100.00
6389;BME280;3227;42.654;23.360;2023-05-29T01:01:01;94215.00;;;14.79;100.00
6389;BME280;3227;42.654;23.360;2023-05-29T01:03:30;94210.03;;;14.72;100.00
6389;BME280;3227;42.654;23.360;2023-05-29T01:05:58;94219.47;;;14.73;100.00
6389;BME280;3227;42.654;23.360;2023-05-29T01:08:25;94210.84;;;14.74;100.00
6389;BME280;3227;42.654;23.360;2023-05-29T01:10:56;94209.16;;;14.73;100.00
6389;BME280;3227;42.654;23.360;2023-05-29T01:13:29;94216.81;;;14.74;100.00
6389;BME280;3227;42.654;23.360;2023-05-29T01:16:03;94216.75;;;14.79;100.00
6389;BME280;3227;42.654;23.360;2023-05-29T01:18:39;94164.00;;;14.54;100.00
6389;BME280;3227;42.654;23.360;2023-05-29T01:21:12;94224.44;;;14.82;100.00
6389;BME280;3227;42.654;23.360;2023-05-29T01:23:52;94225.25;;;14.82;100.00
6389;BME280;3227;42.654;23.360;2023-05-29T01:29:26;94222.63;;;14.84;100.00
6389;BME280;3227;42.654;23.360;2023-05-29T01:31:56;94231.19;;;14.86;100.00
6389;BME280;3227;42.654;23.360;2023-05-29T01:34:24;94224.31;;;14.87;100.00
6389;BME280;3227;42.654;23.360;2023-05-29T01:36:51;94223.44;;;14.88;100.00
6389;BME280;3227;42.654;23.360;2023-05-29T01:39:18;94216.59;;;14.85;100.00
6389;BME280;3227;42.654;23.360;2023-05-29T01:41:46;94219.03;;;14.91;100.00
6389;BME280;3227;42.654;23.360;2023-05-29T01:44:14;94198.84;;;14.71;100.00
6389;BME280;3227;42.654;23.360;2023-05-29T01:46:43;94161.56;;;14.46;100.00
6389;BME280;3227;42.654;23.360;2023-05-29T01:49:11;94181.34;;;14.45;100.00
6389;BME280;3227;42.654;23.360;2023-05-29T01:51:38;94221.44;;;14.60;100.00
6389;BME280;3227;42.654;23.360;2023-05-29T01:54:06;94220.56;;;14.60;100.00
6389;BME280;3227;42.654;23.360;2023-05-29T01:56:33;94221.53;;;14.56;100.00
6389;BME280;3227;42.654;23.360;2023-05-29T01:59:02;94215.50;;;14.57;100.00
6389;BME280;3227;42.654;23.360;2023-05-29T02:01:31;94220.66;;;14.57;100.00
6389;BME280;3227;42.654;23.360;2023-05-29T02:03:59;94216.28;;;14.59;100.00
6389;BME280;3227;42.654;23.360;2023-05-29T02:06:26;94172.88;;;14.40;100.00
6389;BME280;3227;42.654;23.360;2023-05-29T02:08:53;94217.00;;;14.67;100.00
6389;BME280;3227;42.654;23.360;2023-05-29T02:11:19;94210.16;;;14.66;100.00
6389;BME280;3227;42.654;23.360;2023-05-29T02:13:47;94214.41;;;14.67;100.00
6389;BME280;3227;42.654;23.360;2023-05-29T02:16:14;94220.53;;;14.63;100.00
6389;BME280;3227;42.654;23.360;2023-05-29T02:18:40;94206.03;;;14.57;100.00
6389;BME280;3227;42.654;23.360;2023-05-29T02:21:10;94203.56;;;14.51;100.00
6389;BME280;3227;42.654;23.360;2023-05-29T02:23:36;94204.50;;;14.49;100.00
6389;BME280;3227;42.654;23.360;2023-05-29T02:26:03;94208.81;;;14.46;100.00
6389;BME280;3227;42.654;23.360;2023-05-29T02:28:30;94207.06;;;14.49;100.00
6389;BME280;3227;42.654;23.360;2023-05-29T02:30:57;94209.69;;;14.47;100.00
6389;BME280;3227;42.654;23.360;2023-05-29T02:33:24;94216.47;;;14.50;100.00
6389;BME280;3227;42.654;23.360;2023-05-29T02:35:50;94213.78;;;14.56;100.00
6389;BME280;3227;42.654;23.360;2023-05-29T02:38:18;94217.16;;;14.59;100.00
6389;BME280;3227;42.654;23.360;2023-05-29T02:40:45;94207.66;;;14.61;100.00
6389;BME280;3227;42.654;23.360;2023-05-29T02:43:13;94223.94;;;14.63;100.00
6389;BME280;3227;42.654;23.360;2023-05-29T02:45:39;94214.50;;;14.64;100.00
6389;BME280;3227;42.654;23.360;2023-05-29T02:48:06;94215.31;;;14.66;100.00
6389;BME280;3227;42.654;23.360;2023-05-29T02:50:33;94216.97;;;14.68;100.00
6389;BME280;3227;42.654;23.360;2023-05-29T02:53:00;94211.78;;;14.70;100.00
6389;BME280;3227;42.654;23.360;2023-05-29T02:55:28;94217.72;;;14.73;100.00
6389;BME280;3227;42.654;23.360;2023-05-29T02:57:57;94212.50;;;14.76;100.00
6389;BME280;3227;42.654;23.360;2023-05-29T03:00:25;94217.63;;;14.78;100.00
6389;BME280;3227;42.654;23.360;2023-05-29T03:02:53;94193.03;;;14.62;100.00
6389;BME280;3227;42.654;23.360;2023-05-29T03:05:20;94181.91;;;14.58;100.00
6389;BME280;3227;42.654;23.360;2023-05-29T03:07:47;94223.47;;;14.86;100.00
6389;BME280;3227;42.654;23.360;2023-05-29T03:10:14;94224.31;;;14.87;100.00
6389;BME280;3227;42.654;23.360;2023-05-29T03:12:44;94226.03;;;14.86;100.00
6389;BME280;3227;42.654;23.360;2023-05-29T03:15:10;94229.38;;;14.91;100.00
6389;BME280;3227;42.654;23.360;2023-05-29T03:17:37;94219.00;;;14.94;100.00
6389;BME280;3227;42.654;23.360;2023-05-29T03:20:05;94226.78;;;14.91;100.00
6389;BME280;3227;42.654;23.360;2023-05-29T03:22:33;94226.78;;;14.91;100.00
6389;BME280;3227;42.654;23.360;2023-05-29T03:25:01;94229.34;;;14.93;100.00
6389;BME280;3227;42.654;23.360;2023-05-29T03:27:28;94230.84;;;15.03;100.00
6389;BME280;3227;42.654;23.360;2023-05-29T03:29:56;94229.00;;;15.08;100.00
6389;BME280;3227;42.654;23.360;2023-05-29T03:32:23;94166.84;;;14.80;100.00
6389;BME280;3227;42.654;23.360;2023-05-29T03:34:50;94224.47;;;15.17;99.96
6389;BME280;3227;42.654;23.360;2023-05-29T03:37:17;94242.19;;;15.33;99.72
6389;BME280;3227;42.654;23.360;2023-05-29T03:39:44;94245.63;;;15.33;99.90
6389;BME280;3227;42.654;23.360;2023-05-29T03:42:11;94248.34;;;15.29;100.00
6389;BME280;3227;42.654;23.360;2023-05-29T03:44:37;94247.53;;;15.25;100.00
6389;BME280;3227;42.654;23.360;2023-05-29T03:47:06;94255.84;;;15.39;100.00
6389;BME280;3227;42.654;23.360;2023-05-29T03:49:34;94255.50;;;15.54;99.54
6389;BME280;3227;42.654;23.360;2023-05-29T03:52:00;94214.09;;;15.57;99.37
6389;BME280;3227;42.654;23.360;2023-05-29T03:54:27;94252.78;;;17.21;93.60
6389;BME280;3227;42.654;23.360;2023-05-29T03:56:54;94265.91;;;18.50;85.79
6389;BME280;3227;42.654;23.360;2023-05-29T03:59:21;94205.16;;;18.31;81.51
6389;BME280;3227;42.654;23.360;2023-05-29T04:01:47;94266.16;;;18.17;82.88
6389;BME280;3227;42.654;23.360;2023-05-29T04:04:16;94273.22;;;18.12;84.36
6389;BME280;3227;42.654;23.360;2023-05-29T04:06:43;94272.22;;;17.90;85.39
6389;BME280;3227;42.654;23.360;2023-05-29T04:09:10;94267.59;;;17.73;86.80
6389;BME280;3227;42.654;23.360;2023-05-29T04:11:36;94250.78;;;17.57;87.53
6389;BME280;3227;42.654;23.360;2023-05-29T04:14:04;94280.81;;;18.18;86.90
6389;BME280;3227;42.654;23.360;2023-05-29T04:16:30;94268.34;;;19.02;81.48
6389;BME280;3227;42.654;23.360;2023-05-29T04:18:57;94282.25;;;19.02;80.23
6389;BME280;3227;42.654;23.360;2023-05-29T04:21:25;94283.47;;;18.91;81.80
6389;BME280;3227;42.654;23.360;2023-05-29T04:23:52;94279.50;;;18.81;81.46
6389;BME280;3227;42.654;23.360;2023-05-29T04:26:21;94292.13;;;18.67;82.44
6389;BME280;3227;42.654;23.360;2023-05-29T04:28:50;94285.25;;;18.40;83.83
6389;BME280;3227;42.654;23.360;2023-05-29T04:31:18;94286.34;;;18.08;84.90
6389;BME280;3227;42.654;23.360;2023-05-29T04:33:48;94281.09;;;17.83;86.64
6389;BME280;3227;42.654;23.360;2023-05-29T04:36:14;94283.09;;;17.75;87.99
6389;BME280;3227;42.654;23.360;2023-05-29T04:38:43;94290.09;;;17.71;88.84
6389;BME280;3227;42.654;23.360;2023-05-29T04:41:10;94289.25;;;17.71;89.55
6389;BME280;3227;42.654;23.360;2023-05-29T04:43:37;94281.38;;;17.74;89.37
6389;BME280;3227;42.654;23.360;2023-05-29T04:46:10;94288.63;;;17.91;89.07
6389;BME280;3227;42.654;23.360;2023-05-29T04:48:38;94284.03;;;18.25;87.89
6389;BME280;3227;42.654;23.360;2023-05-29T04:51:05;94283.16;;;18.51;86.48
6389;BME280;3227;42.654;23.360;2023-05-29T04:53:36;94290.84;;;18.79;85.63
6389;BME280;3227;42.654;23.360;2023-05-29T04:56:04;94293.19;;;19.33;82.62
6389;BME280;3227;42.654;23.360;2023-05-29T04:58:31;94302.34;;;19.66;80.73
6389;BME280;3227;42.654;23.360;2023-05-29T05:00:58;94304.03;;;19.89;79.67
6389;BME280;3227;42.654;23.360;2023-05-29T05:03:25;94309.59;;;20.24;76.17
6389;BME280;3227;42.654;23.360;2023-05-29T05:05:51;94312.97;;;20.47;74.33
6389;BME280;3227;42.654;23.360;2023-05-29T05:08:18;94313.91;;;20.45;74.71
6389;BME280;3227;42.654;23.360;2023-05-29T05:10:45;94317.25;;;20.27;74.64
6389;BME280;3227;42.654;23.360;2023-05-29T05:13:13;94324.75;;;20.34;75.10
6389;BME280;3227;42.654;23.360;2023-05-29T05:15:40;94321.38;;;20.74;73.90
6389;BME280;3227;42.654;23.360;2023-05-29T05:18:07;94327.03;;;21.24;71.35
6389;BME280;3227;42.654;23.360;2023-05-29T05:20:33;94325.22;;;21.25;69.69
6389;BME280;3227;42.654;23.360;2023-05-29T05:23:01;94321.25;;;21.37;69.68
6389;BME280;3227;42.654;23.360;2023-05-29T05:25:28;94319.13;;;21.06;69.66
6389;BME280;3227;42.654;23.360;2023-05-29T05:27:54;94323.72;;;20.80;70.51
6389;BME280;3227;42.654;23.360;2023-05-29T05:30:23;94309.81;;;20.39;72.51
6389;BME280;3227;42.654;23.360;2023-05-29T05:32:50;94319.84;;;20.48;74.81
6389;BME280;3227;42.654;23.360;2023-05-29T05:35:17;94317.19;;;20.91;73.09
6389;BME280;3227;42.654;23.360;2023-05-29T05:37:44;94304.81;;;20.96;69.99
6389;BME280;3227;42.654;23.360;2023-05-29T05:40:12;94317.50;;;21.03;69.88
6389;BME280;3227;42.654;23.360;2023-05-29T05:42:38;94320.75;;;20.68;72.60
6389;BME280;3227;42.654;23.360;2023-05-29T05:45:38;94322.78;;;20.41;73.97
6389;BME280;3227;42.654;23.360;2023-05-29T05:48:07;94324.69;;;20.58;74.16
6389;BME280;3227;42.654;23.360;2023-05-29T05:50:34;94317.88;;;20.11;74.92
6389;BME280;3227;42.654;23.360;2023-05-29T05:53:01;94323.78;;;19.93;76.00
6389;BME280;3227;42.654;23.360;2023-05-29T05:55:28;94311.16;;;19.39;78.17
6389;BME280;3227;42.654;23.360;2023-05-29T05:57:55;94328.44;;;19.17;80.04
6389;BME280;3227;42.654;23.360;2023-05-29T06:00:22;94337.78;;;18.97;81.29
6389;BME280;3227;42.654;23.360;2023-05-29T06:02:50;94326.72;;;18.68;83.36
6389;BME280;3227;42.654;23.360;2023-05-29T06:05:17;94325.56;;;18.50;84.44
6389;BME280;3227;42.654;23.360;2023-05-29T06:07:44;94317.91;;;18.45;85.46
6389;BME280;3227;42.654;23.360;2023-05-29T06:10:11;94318.59;;;18.52;84.62
6389;BME280;3227;42.654;23.360;2023-05-29T06:12:38;94323.06;;;18.73;84.52
6389;BME280;3227;42.654;23.360;2023-05-29T06:15:06;94324.50;;;18.82;84.14
6389;BME280;3227;42.654;23.360;2023-05-29T06:17:33;94324.31;;;18.86;83.54
6389;BME280;3227;42.654;23.360;2023-05-29T06:20:01;94337.94;;;18.93;83.68
6389;BME280;3227;42.654;23.360;2023-05-29T06:22:30;94323.38;;;19.12;83.49
6389;BME280;3227;42.654;23.360;2023-05-29T06:24:56;94336.19;;;19.18;82.79
6389;BME280;3227;42.654;23.360;2023-05-29T06:27:23;94275.59;;;19.18;81.87
6389;BME280;3227;42.654;23.360;2023-05-29T06:29:51;94338.63;;;19.91;79.88
6389;BME280;3227;42.654;23.360;2023-05-29T06:32:18;94337.34;;;20.23;77.56
6389;BME280;3227;42.654;23.360;2023-05-29T06:34:44;94336.00;;;20.57;77.13
6389;BME280;3227;42.654;23.360;2023-05-29T06:37:12;94328.75;;;21.04;74.52
6389;BME280;3227;42.654;23.360;2023-05-29T06:39:39;94334.84;;;21.24;72.83
6389;BME280;3227;42.654;23.360;2023-05-29T06:42:07;94339.63;;;21.13;73.40
6389;BME280;3227;42.654;23.360;2023-05-29T06:44:34;94334.19;;;20.79;72.65
6389;BME280;3227;42.654;23.360;2023-05-29T06:47:01;94327.94;;;20.63;74.43
6389;BME280;3227;42.654;23.360;2023-05-29T06:49:27;94337.22;;;20.68;73.16
6389;BME280;3227;42.654;23.360;2023-05-29T06:51:54;94327.00;;;20.84;72.51
6389;BME280;3227;42.654;23.360;2023-05-29T06:54:22;94321.41;;;20.93;72.54
6389;BME280;3227;42.654;23.360;2023-05-29T06:56:49;94336.38;;;20.68;73.72
6389;BME280;3227;42.654;23.360;2023-05-29T06:59:16;94334.53;;;20.92;72.79
6389;BME280;3227;42.654;23.360;2023-05-29T07:01:44;94345.03;;;21.09;70.80
6389;BME280;3227;42.654;23.360;2023-05-29T07:04:11;94342.00;;;20.99;71.53
6389;BME280;3227;42.654;23.360;2023-05-29T07:06:38;94331.63;;;21.18;70.23
6389;BME280;3227;42.654;23.360;2023-05-29T07:09:04;94329.97;;;21.36;69.85
6389;BME280;3227;42.654;23.360;2023-05-29T07:11:32;94342.22;;;21.34;68.95
6389;BME280;3227;42.654;23.360;2023-05-29T07:13:59;94338.44;;;21.00;70.98
6389;BME280;3227;42.654;23.360;2023-05-29T07:16:26;94336.41;;;20.88;71.78
6389;BME280;3227;42.654;23.360;2023-05-29T07:18:53;94340.03;;;21.04;70.75
6389;BME280;3227;42.654;23.360;2023-05-29T07:21:19;94341.25;;;21.16;71.56
6389;BME280;3227;42.654;23.360;2023-05-29T07:23:46;94334.91;;;21.42;69.50
6389;BME280;3227;42.654;23.360;2023-05-29T07:26:13;94328.44;;;21.32;68.57
6389;BME280;3227;42.654;23.360;2023-05-29T07:28:41;94331.75;;;21.15;70.16
6389;BME280;3227;42.654;23.360;2023-05-29T07:31:08;94341.44;;;21.11;70.23
6389;BME280;3227;42.654;23.360;2023-05-29T07:33:35;94334.94;;;21.01;70.95
6389;BME280;3227;42.654;23.360;2023-05-29T07:36:01;94333.34;;;20.99;71.47
6389;BME280;3227;42.654;23.360;2023-05-29T07:38:28;94330.78;;;20.97;70.91
6389;BME280;3227;42.654;23.360;2023-05-29T07:40:55;94342.13;;;20.96;70.46
6389;BME280;3227;42.654;23.360;2023-05-29T07:43:23;94337.88;;;20.94;70.93
6389;BME280;3227;42.654;23.360;2023-05-29T07:45:51;94344.00;;;20.72;69.99
6389;BME280;3227;42.654;23.360;2023-05-29T07:48:18;94337.06;;;20.73;70.32
6389;BME280;3227;42.654;23.360;2023-05-29T07:50:44;94333.34;;;20.78;71.39
6389;BME280;3227;42.654;23.360;2023-05-29T07:53:11;94336.19;;;20.93;70.46
6389;BME280;3227;42.654;23.360;2023-05-29T07:55:38;94329.09;;;20.96;68.95
6389;BME280;3227;42.654;23.360;2023-05-29T07:58:05;94323.16;;;21.13;67.84
6389;BME280;3227;42.654;23.360;2023-05-29T08:00:32;94326.25;;;21.41;66.91
6389;BME280;3227;42.654;23.360;2023-05-29T08:03:01;94324.34;;;21.45;67.46
6389;BME280;3227;42.654;23.360;2023-05-29T08:05:28;94333.19;;;21.22;69.17
6389;BME280;3227;42.654;23.360;2023-05-29T08:07:56;94333.25;;;21.41;70.30
6389;BME280;3227;42.654;23.360;2023-05-29T08:10:24;94333.66;;;21.50;69.52
6389;BME280;3227;42.654;23.360;2023-05-29T08:12:50;94338.84;;;21.32;69.42
6389;BME280;3227;42.654;23.360;2023-05-29T08:15:18;94326.22;;;21.02;70.93
6389;BME280;3227;42.654;23.360;2023-05-29T08:17:45;94333.91;;;20.85;71.58
6389;BME280;3227;42.654;23.360;2023-05-29T08:20:13;94348.53;;;20.67;71.67
6389;BME280;3227;42.654;23.360;2023-05-29T08:22:40;94340.31;;;20.58;73.23
6389;BME280;3227;42.654;23.360;2023-05-29T08:25:07;94293.09;;;20.45;73.75
6389;BME280;3227;42.654;23.360;2023-05-29T08:27:34;94335.81;;;21.22;72.89
6389;BME280;3227;42.654;23.360;2023-05-29T08:30:02;94339.63;;;21.52;70.43
6389;BME280;3227;42.654;23.360;2023-05-29T08:32:29;94338.66;;;21.55;71.70
6389;BME280;3227;42.654;23.360;2023-05-29T08:34:55;94345.72;;;21.72;69.34
6389;BME280;3227;42.654;23.360;2023-05-29T08:37:24;94343.47;;;21.64;69.56
6389;BME280;3227;42.654;23.360;2023-05-29T08:39:51;94346.91;;;21.46;69.67
6389;BME280;3227;42.654;23.360;2023-05-29T08:42:21;94340.31;;;21.57;69.58
6389;BME280;3227;42.654;23.360;2023-05-29T08:44:48;94335.28;;;21.53;68.04
6389;BME280;3227;42.654;23.360;2023-05-29T08:47:17;94328.88;;;21.60;68.10
6389;BME280;3227;42.654;23.360;2023-05-29T08:49:50;94332.81;;;21.87;68.38
6389;BME280;3227;42.654;23.360;2023-05-29T08:52:20;94327.91;;;22.17;66.04
6389;BME280;3227;42.654;23.360;2023-05-29T08:54:48;94330.09;;;22.26;62.94
6389;BME280;3227;42.654;23.360;2023-05-29T08:57:15;94326.69;;;21.88;62.38
6389;BME280;3227;42.654;23.360;2023-05-29T08:59:44;94327.31;;;21.75;64.03
6389;BME280;3227;42.654;23.360;2023-05-29T09:02:11;94319.69;;;22.08;64.45
6389;BME280;3227;42.654;23.360;2023-05-29T09:04:38;94286.50;;;21.36;62.12
6389;BME280;3227;42.654;23.360;2023-05-29T09:07:07;94312.19;;;21.25;64.62
6389;BME280;3227;42.654;23.360;2023-05-29T09:09:34;94321.47;;;21.51;66.42
6389;BME280;3227;42.654;23.360;2023-05-29T09:12:03;94318.13;;;21.85;63.53
6389;BME280;3227;42.654;23.360;2023-05-29T09:14:34;94290.34;;;21.84;62.02
6389;BME280;3227;42.654;23.360;2023-05-29T09:17:01;94286.81;;;22.22;60.84
6389;BME280;3227;42.654;23.360;2023-05-29T09:19:29;94308.84;;;22.51;60.71
6389;BME280;3227;42.654;23.360;2023-05-29T09:22:00;94298.47;;;22.67;58.63
6389;BME280;3227;42.654;23.360;2023-05-29T09:24:28;94294.66;;;22.39;58.41
6389;BME280;3227;42.654;23.360;2023-05-29T09:26:55;94265.75;;;22.25;57.84
6389;BME280;3227;42.654;23.360;2023-05-29T09:29:24;94299.06;;;22.20;57.81
6389;BME280;3227;42.654;23.360;2023-05-29T09:31:51;94281.56;;;22.05;59.99
6389;BME280;3227;42.654;23.360;2023-05-29T09:34:18;94295.28;;;22.09;57.29
6389;BME280;3227;42.654;23.360;2023-05-29T09:36:44;94285.06;;;22.40;59.00
6389;BME280;3227;42.654;23.360;2023-05-29T09:39:11;94285.94;;;22.73;56.57
6389;BME280;3227;42.654;23.360;2023-05-29T09:41:41;94284.56;;;22.49;56.64
6389;BME280;3227;42.654;23.360;2023-05-29T09:44:12;94281.00;;;21.61;60.66
6389;BME280;3227;42.654;23.360;2023-05-29T09:50:03;94268.38;;;22.60;61.45
6389;BME280;3227;42.654;23.360;2023-05-29T09:52:30;94261.84;;;22.51;58.38
6389;BME280;3227;42.654;23.360;2023-05-29T09:54:57;94262.63;;;21.64;59.89
6389;BME280;3227;42.654;23.360;2023-05-29T09:57:25;94282.22;;;21.73;60.66
6389;BME280;3227;42.654;23.360;2023-05-29T09:59:54;94265.03;;;21.31;61.27
6389;BME280;3227;42.654;23.360;2023-05-29T10:02:21;94263.47;;;21.46;62.68
6389;BME280;3227;42.654;23.360;2023-05-29T10:04:49;94269.47;;;21.48;61.55
6389;BME280;3227;42.654;23.360;2023-05-29T10:07:22;94268.97;;;21.58;62.19
6389;BME280;3227;42.654;23.360;2023-05-29T10:09:53;94265.50;;;21.77;61.19
6389;BME280;3227;42.654;23.360;2023-05-29T10:12:26;94264.88;;;22.08;60.84
6389;BME280;3227;42.654;23.360;2023-05-29T10:14:56;94262.59;;;22.19;58.81
6389;BME280;3227;42.654;23.360;2023-05-29T10:17:28;94277.56;;;22.32;59.16
6389;BME280;3227;42.654;23.360;2023-05-29T10:19:57;94273.06;;;22.36;58.58
6389;BME280;3227;42.654;23.360;2023-05-29T10:22:31;94268.00;;;22.50;57.83
6389;BME280;3227;42.654;23.360;2023-05-29T10:24:59;94266.94;;;22.37;56.51
6389;BME280;3227;42.654;23.360;2023-05-29T10:27:26;94266.00;;;22.38;58.24
6389;BME280;3227;42.654;23.360;2023-05-29T10:29:59;94252.03;;;22.39;57.75
6389;BME280;3227;42.654;23.360;2023-05-29T10:32:36;94259.31;;;22.15;57.66
6389;BME280;3227;42.654;23.360;2023-05-29T10:35:10;94259.97;;;22.01;58.25
6389;BME280;3227;42.654;23.360;2023-05-29T10:37:44;94255.53;;;22.04;58.80
6389;BME280;3227;42.654;23.360;2023-05-29T10:40:12;94254.69;;;22.03;58.13
6389;BME280;3227;42.654;23.360;2023-05-29T10:42:44;94223.56;;;21.81;59.34
6389;BME280;3227;42.654;23.360;2023-05-29T10:45:50;94252.78;;;22.07;58.60
6389;BME280;3227;42.654;23.360;2023-05-29T10:51:27;94246.94;;;22.19;58.60
6389;BME280;3227;42.654;23.360;2023-05-29T10:53:55;94253.41;;;22.29;57.85
6389;BME280;3227;42.654;23.360;2023-05-29T10:56:23;94257.72;;;22.30;58.40
6389;BME280;3227;42.654;23.360;2023-05-29T10:58:55;94243.28;;;22.40;58.62
6389;BME280;3227;42.654;23.360;2023-05-29T11:01:23;94244.88;;;22.25;58.27
6389;BME280;3227;42.654;23.360;2023-05-29T11:03:50;94247.19;;;22.31;58.99
6389;BME280;3227;42.654;23.360;2023-05-29T11:06:19;94237.56;;;22.32;60.79
6389;BME280;3227;42.654;23.360;2023-05-29T11:08:53;94228.44;;;22.40;60.84
6389;BME280;3227;42.654;23.360;2023-05-29T11:11:30;94185.72;;;22.59;60.80
6389;BME280;3227;42.654;23.360;2023-05-29T11:14:02;94236.50;;;23.21;59.39
6389;BME280;3227;42.654;23.360;2023-05-29T11:16:36;94233.63;;;23.41;60.06
6389;BME280;3227;42.654;23.360;2023-05-29T11:19:04;94224.31;;;23.52;58.60
6389;BME280;3227;42.654;23.360;2023-05-29T11:21:33;94223.38;;;23.54;59.69
6389;BME280;3227;42.654;23.360;2023-05-29T11:24:02;94224.38;;;23.67;59.23
6389;BME280;3227;42.654;23.360;2023-05-29T11:26:32;94213.25;;;23.79;57.03
6389;BME280;3227;42.654;23.360;2023-05-29T11:29:00;94198.56;;;23.76;57.65
6389;BME280;3227;42.654;23.360;2023-05-29T11:31:28;94213.84;;;23.68;58.59
6389;BME280;3227;42.654;23.360;2023-05-29T11:33:59;94208.81;;;23.32;61.32
6389;BME280;3227;42.654;23.360;2023-05-29T11:36:28;94209.06;;;23.12;62.07
6389;BME280;3227;42.654;23.360;2023-05-29T11:38:56;94201.34;;;22.93;60.41
6389;BME280;3227;42.654;23.360;2023-05-29T11:41:23;94203.00;;;22.79;60.53
6389;BME280;3227;42.654;23.360;2023-05-29T11:43:59;94207.00;;;22.68;59.92
6389;BME280;3227;42.654;23.360;2023-05-29T11:46:27;94210.00;;;22.61;59.94
6389;BME280;3227;42.654;23.360;2023-05-29T11:48:56;94154.00;;;22.16;60.42
6389;BME280;3227;42.654;23.360;2023-05-29T11:51:23;94213.34;;;22.47;60.35
6389;BME280;3227;42.654;23.360;2023-05-29T11:53:50;94229.59;;;22.35;61.23
6389;BME280;3227;42.654;23.360;2023-05-29T11:56:42;94235.28;;;22.09;67.65
6389;BME280;3227;42.654;23.360;2023-05-29T11:59:12;94246.78;;;21.86;71.87
6389;BME280;3227;42.654;23.360;2023-05-29T12:01:38;94228.97;;;21.41;73.55
6389;BME280;3227;42.654;23.360;2023-05-29T12:04:14;94231.47;;;21.05;78.23
6389;BME280;3227;42.654;23.360;2023-05-29T12:06:41;94225.03;;;20.93;83.07
6389;BME280;3227;42.654;23.360;2023-05-29T12:09:08;94217.31;;;20.92;86.18
6389;BME280;3227;42.654;23.360;2023-05-29T12:11:34;94218.91;;;20.94;84.98
6389;BME280;3227;42.654;23.360;2023-05-29T12:14:01;94224.06;;;20.96;85.92
6389;BME280;3227;42.654;23.360;2023-05-29T12:16:30;94225.41;;;21.04;82.88
6389;BME280;3227;42.654;23.360;2023-05-29T12:19:00;94228.38;;;21.15;85.19
6389;BME280;3227;42.654;23.360;2023-05-29T12:21:27;94223.75;;;21.22;86.47
6389;BME280;3227;42.654;23.360;2023-05-29T12:23:54;94225.47;;;21.23;84.92
6389;BME280;3227;42.654;23.360;2023-05-29T12:26:41;94220.44;;;21.18;84.50
6389;BME280;3227;42.654;23.360;2023-05-29T12:29:08;94220.19;;;21.24;83.28
6389;BME280;3227;42.654;23.360;2023-05-29T12:31:37;94225.16;;;21.29;83.82
6389;BME280;3227;42.654;23.360;2023-05-29T12:34:08;94220.63;;;21.14;86.83
6389;BME280;3227;42.654;23.360;2023-05-29T12:36:35;94247.94;;;20.46;77.70
6389;BME280;3227;42.654;23.360;2023-05-29T12:39:06;94242.38;;;19.93;79.93
6389;BME280;3227;42.654;23.360;2023-05-29T12:41:35;94239.91;;;19.68;80.86
6389;BME280;3227;42.654;23.360;2023-05-29T12:44:03;94251.97;;;19.24;83.46
6389;BME280;3227;42.654;23.360;2023-05-29T12:46:37;94248.34;;;19.28;87.14
6389;BME280;3227;42.654;23.360;2023-05-29T12:49:11;94248.72;;;19.19;88.27
6389;BME280;3227;42.654;23.360;2023-05-29T12:51:40;94236.63;;;19.18;88.30
6389;BME280;3227;42.654;23.360;2023-05-29T12:54:07;94236.53;;;19.43;92.35
6389;BME280;3227;42.654;23.360;2023-05-29T12:56:34;94233.53;;;19.75;95.58
6389;BME280;3227;42.654;23.360;2023-05-29T12:59:00;94211.00;;;19.96;95.66
6389;BME280;3227;42.654;23.360;2023-05-29T13:01:27;94232.06;;;20.32;91.73
6389;BME280;3227;42.654;23.360;2023-05-29T13:03:55;94225.88;;;20.55;91.72
6389;BME280;3227;42.654;23.360;2023-05-29T13:06:22;94229.00;;;20.83;90.79
6389;BME280;3227;42.654;23.360;2023-05-29T13:08:49;94213.94;;;21.08;89.00
6389;BME280;3227;42.654;23.360;2023-05-29T13:11:16;94231.50;;;21.23;86.52
6389;BME280;3227;42.654;23.360;2023-05-29T13:13:43;94227.84;;;21.27;86.97
6389;BME280;3227;42.654;23.360;2023-05-29T13:16:10;94226.16;;;21.26;85.84
6389;BME280;3227;42.654;23.360;2023-05-29T13:18:36;94218.19;;;21.30;84.86
6389;BME280;3227;42.654;23.360;2023-05-29T13:21:05;94230.84;;;21.00;76.62
6389;BME280;3227;42.654;23.360;2023-05-29T13:23:32;94213.38;;;20.63;79.41